createdAt,value
2022-12-19T00:01:55.077Z,98.42
2022-12-19T00:04:22.146Z,99.01
2022-12-19T00:06:49.235Z,99.15
2022-12-19T00:09:16.367Z,99.38
2022-12-19T00:11:43.476Z,99.11
2022-12-19T00:14:12.326Z,99.64
2022-12-19T00:16:39.552Z,99.51
2022-12-19T00:19:09.415Z,99.05
2022-12-19T00:21:37.444Z,99.35
2022-12-19T00:24:12.397Z,99.28
2022-12-19T00:26:48.091Z,99.50
2022-12-19T00:29:15.342Z,98.91
2022-12-19T00:31:43.680Z,99.39
2022-12-19T00:34:11.029Z,99.26
2022-12-19T00:36:40.190Z,100.00
2022-12-19T00:39:08.772Z,99.08
2022-12-19T00:41:41.328Z,99.10
2022-12-19T00:44:16.914Z,99.78
2022-12-19T00:46:46.469Z,99.96
2022-12-19T00:49:20.619Z,99.79
2022-12-19T00:51:47.625Z,100.00
2022-12-19T00:54:15.038Z,99.89
2022-12-19T00:56:42.369Z,99.77
2022-12-19T00:59:10.595Z,100.00
2022-12-19T01:01:41.321Z,100.00
2022-12-19T01:04:30.379Z,100.00
2022-12-19T01:07:02.002Z,99.82
2022-12-19T01:09:34.380Z,100.00
2022-12-19T01:12:23.138Z,100.00
2022-12-19T01:14:58.528Z,100.00
2022-12-19T01:17:31.254Z,100.00
2022-12-19T01:19:58.355Z,99.70
2022-12-19T01:22:25.462Z,99.92
2022-12-19T01:24:52.595Z,100.00
2022-12-19T01:27:19.644Z,100.00
2022-12-19T01:29:52.779Z,100.00
2022-12-19T01:32:21.721Z,100.00
2022-12-19T01:34:49.122Z,100.00
2022-12-19T01:37:20.315Z,100.00
2022-12-19T01:39:47.584Z,100.00
2022-12-19T01:42:23.360Z,100.00
2022-12-19T01:45:12.153Z,100.00
2022-12-19T01:47:57.532Z,100.00
2022-12-19T01:50:33.383Z,100.00
2022-12-19T01:53:02.295Z,100.00
2022-12-19T01:55:30.931Z,100.00
2022-12-19T01:58:00.352Z,100.00
2022-12-19T02:00:27.478Z,100.00
2022-12-19T02:03:27.185Z,100.00
2022-12-19T02:05:55.362Z,100.00
2022-12-19T02:08:24.029Z,100.00
2022-12-19T02:10:51.251Z,100.00
2022-12-19T02:13:19.587Z,100.00
2022-12-19T02:15:57.285Z,100.00
2022-12-19T02:18:55.776Z,100.00
2022-12-19T02:21:44.986Z,100.00
2022-12-19T02:24:51.514Z,100.00
2022-12-19T02:28:03.792Z,100.00
2022-12-19T02:30:52.599Z,100.00
2022-12-19T02:33:40.223Z,100.00
2022-12-19T02:36:19.345Z,100.00
2022-12-19T02:39:02.905Z,100.00
2022-12-19T02:41:46.313Z,100.00
2022-12-19T02:44:29.869Z,100.00
2022-12-19T02:47:00.532Z,100.00
2022-12-19T02:49:34.931Z,100.00
2022-12-19T02:52:21.112Z,100.00
2022-12-19T02:54:59.654Z,100.00
2022-12-19T02:57:42.093Z,100.00
2022-12-19T03:00:18.231Z,100.00
2022-12-19T03:03:06.570Z,100.00
2022-12-19T03:06:01.018Z,100.00
2022-12-19T03:08:59.032Z,100.00
2022-12-19T03:11:34.598Z,100.00
2022-12-19T03:14:07.891Z,100.00
2022-12-19T03:16:37.047Z,100.00
2022-12-19T03:19:11.985Z,100.00
2022-12-19T03:21:46.209Z,100.00
2022-12-19T03:24:18.303Z,100.00
2022-12-19T03:26:57.958Z,100.00
2022-12-19T03:29:37.685Z,100.00
2022-12-19T03:32:09.501Z,100.00
2022-12-19T03:34:59.653Z,100.00
2022-12-19T03:37:31.537Z,100.00
2022-12-19T03:40:04.599Z,100.00
2022-12-19T03:42:51.805Z,100.00
2022-12-19T03:45:32.935Z,100.00
2022-12-19T03:48:08.285Z,100.00
2022-12-19T03:51:10.057Z,100.00
2022-12-19T03:53:58.347Z,100.00
2022-12-19T03:56:50.800Z,100.00
2022-12-19T03:59:52.356Z,100.00
2022-12-19T04:02:22.698Z,100.00
2022-12-19T04:04:58.273Z,100.00
2022-12-19T04:07:25.973Z,100.00
2022-12-19T04:09:56.236Z,100.00
2022-12-19T04:12:33.430Z,100.00
2022-12-19T04:15:00.589Z,100.00
2022-12-19T04:17:49.432Z,100.00
2022-12-19T04:20:21.256Z,100.00
2022-12-19T04:23:06.816Z,100.00
2022-12-19T04:25:46.740Z,100.00
2022-12-19T04:28:20.539Z,100.00
2022-12-19T04:30:49.413Z,100.00
2022-12-19T04:33:16.564Z,100.00
2022-12-19T04:35:43.661Z,100.00
2022-12-19T04:38:10.758Z,100.00
2022-12-19T04:40:41.131Z,100.00
2022-12-19T04:43:09.113Z,100.00
2022-12-19T04:45:36.525Z,100.00
2022-12-19T04:48:04.150Z,100.00
2022-12-19T04:50:33.680Z,100.00
2022-12-19T04:53:01.241Z,100.00
2022-12-19T04:55:28.337Z,100.00
2022-12-19T04:57:55.504Z,100.00
2022-12-19T05:00:23.098Z,100.00
2022-12-19T05:02:50.331Z,100.00
2022-12-19T05:05:18.896Z,100.00
2022-12-19T05:07:46.920Z,100.00
2022-12-19T05:10:14.222Z,100.00
2022-12-19T05:12:41.326Z,100.00
2022-12-19T05:15:09.332Z,100.00
2022-12-19T05:17:36.635Z,100.00
2022-12-19T05:20:04.732Z,100.00
2022-12-19T05:22:32.914Z,100.00
2022-12-19T05:25:00.021Z,100.00
2022-12-19T05:27:27.134Z,100.00
2022-12-19T05:29:54.241Z,100.00
2022-12-19T05:32:21.398Z,100.00
2022-12-19T05:34:48.464Z,100.00
2022-12-19T05:37:15.523Z,100.00
2022-12-19T05:39:42.640Z,100.00
2022-12-19T05:42:12.349Z,100.00
2022-12-19T05:44:39.849Z,100.00
2022-12-19T05:47:06.939Z,100.00
2022-12-19T05:49:33.999Z,100.00
2022-12-19T05:52:01.086Z,100.00
2022-12-19T05:54:28.236Z,100.00
2022-12-19T05:56:55.333Z,100.00
2022-12-19T05:59:22.448Z,100.00
2022-12-19T06:01:49.588Z,100.00
2022-12-19T06:04:16.782Z,100.00
2022-12-19T06:06:44.005Z,100.00
2022-12-19T06:09:11.101Z,100.00
2022-12-19T06:11:38.204Z,100.00
2022-12-19T06:14:08.211Z,100.00
2022-12-19T06:16:35.372Z,100.00
2022-12-19T06:19:02.611Z,100.00
2022-12-19T06:21:29.754Z,100.00
2022-12-19T06:23:56.913Z,100.00
2022-12-19T06:26:24.128Z,100.00
2022-12-19T06:28:52.964Z,100.00
2022-12-19T06:31:21.965Z,100.00
2022-12-19T06:33:49.396Z,100.00
2022-12-19T06:36:26.935Z,100.00
2022-12-19T06:38:55.932Z,100.00
2022-12-19T06:41:41.709Z,100.00
2022-12-19T06:44:12.853Z,100.00
2022-12-19T06:46:41.356Z,100.00
2022-12-19T06:49:10.410Z,100.00
2022-12-19T06:51:37.793Z,100.00
2022-12-19T06:54:05.348Z,100.00
2022-12-19T06:56:41.262Z,100.00
2022-12-19T06:59:13.576Z,100.00
2022-12-19T07:02:22.244Z,100.00
2022-12-19T07:04:58.117Z,100.00
2022-12-19T07:07:25.169Z,100.00
2022-12-19T07:09:52.294Z,100.00
2022-12-19T07:12:19.374Z,100.00
2022-12-19T07:14:51.672Z,100.00
2022-12-19T07:17:22.017Z,100.00
2022-12-19T07:19:55.525Z,100.00
2022-12-19T07:22:23.773Z,100.00
2022-12-19T07:24:51.069Z,100.00
2022-12-19T07:27:18.177Z,100.00
2022-12-19T07:29:45.242Z,100.00
2022-12-19T07:32:12.322Z,100.00
2022-12-19T07:34:39.444Z,100.00
2022-12-19T07:37:07.605Z,100.00
2022-12-19T07:39:34.669Z,100.00
2022-12-19T07:42:01.648Z,100.00
2022-12-19T07:44:37.325Z,100.00
2022-12-19T07:47:04.557Z,100.00
2022-12-19T07:49:35.137Z,100.00
2022-12-19T07:52:02.267Z,100.00
2022-12-19T07:54:29.311Z,100.00
2022-12-19T07:56:56.467Z,100.00
2022-12-19T07:59:29.019Z,100.00
2022-12-19T08:01:58.637Z,100.00
2022-12-19T08:04:26.534Z,100.00
2022-12-19T08:06:53.568Z,100.00
2022-12-19T08:09:20.647Z,100.00
2022-12-19T08:11:47.773Z,100.00
2022-12-19T08:14:15.194Z,100.00
2022-12-19T08:17:18.207Z,100.00
2022-12-19T08:19:29.264Z,100.00
2022-12-19T08:21:56.381Z,100.00
2022-12-19T08:24:23.452Z,100.00
2022-12-19T08:26:50.591Z,100.00
2022-12-19T08:29:17.720Z,100.00
2022-12-19T08:31:44.800Z,100.00
2022-12-19T08:34:11.902Z,100.00
2022-12-19T08:36:39.464Z,100.00
2022-12-19T08:39:08.194Z,100.00
2022-12-19T08:41:35.302Z,100.00
2022-12-19T08:44:02.370Z,100.00
2022-12-19T08:46:29.677Z,100.00
2022-12-19T08:48:57.212Z,100.00
2022-12-19T08:51:24.460Z,100.00
2022-12-19T08:53:51.778Z,100.00
2022-12-19T08:56:21.811Z,100.00
2022-12-19T08:58:51.444Z,100.00
2022-12-19T09:01:23.808Z,100.00
2022-12-19T09:05:16.456Z,100.00
2022-12-19T09:06:38.516Z,100.00
2022-12-19T09:09:05.838Z,100.00
2022-12-19T09:11:33.042Z,100.00
2022-12-19T09:14:04.990Z,100.00
2022-12-19T09:16:32.183Z,100.00
2022-12-19T09:18:59.356Z,100.00
2022-12-19T09:21:29.531Z,100.00
2022-12-19T09:24:07.091Z,100.00
2022-12-19T09:26:38.505Z,100.00
2022-12-19T09:29:20.931Z,100.00
2022-12-19T09:31:55.677Z,100.00
2022-12-19T09:34:37.143Z,100.00
2022-12-19T09:37:17.060Z,100.00
2022-12-19T09:39:48.546Z,100.00
2022-12-19T09:43:06.719Z,100.00
2022-12-19T09:46:06.124Z,100.00
2022-12-19T09:48:33.233Z,100.00
2022-12-19T09:51:38.654Z,100.00
2022-12-19T09:54:15.626Z,100.00
2022-12-19T09:56:46.531Z,100.00
2022-12-19T09:59:39.755Z,100.00
2022-12-19T10:02:39.083Z,100.00
2022-12-19T10:05:39.423Z,100.00
2022-12-19T10:08:21.980Z,100.00
2022-12-19T10:12:39.023Z,100.00
2022-12-19T10:14:22.805Z,100.00
2022-12-19T10:17:27.066Z,100.00
2022-12-19T10:20:11.793Z,100.00
2022-12-19T10:23:09.203Z,100.00
2022-12-19T10:26:16.601Z,100.00
2022-12-19T10:29:02.304Z,100.00
2022-12-19T10:31:57.094Z,100.00
2022-12-19T10:34:38.567Z,100.00
2022-12-19T10:37:40.872Z,100.00
2022-12-19T10:40:34.656Z,100.00
2022-12-19T10:43:35.645Z,100.00
2022-12-19T10:46:15.879Z,100.00
2022-12-19T10:48:43.061Z,100.00
2022-12-19T10:51:14.246Z,100.00
2022-12-19T10:53:41.400Z,100.00
2022-12-19T10:56:33.228Z,100.00
2022-12-19T10:59:04.862Z,100.00
2022-12-19T11:01:39.764Z,100.00
2022-12-19T11:04:33.453Z,100.00
2022-12-19T11:07:32.005Z,100.00
2022-12-19T11:10:44.406Z,100.00
2022-12-19T11:19:15.284Z,100.00
2022-12-19T11:20:02.010Z,100.00
2022-12-19T11:27:05.452Z,100.00
2022-12-19T11:30:09.081Z,100.00
2022-12-19T11:30:26.092Z,100.00
2022-12-19T11:30:45.502Z,100.00
2022-12-19T11:33:19.516Z,100.00
2022-12-19T11:35:56.263Z,100.00
2022-12-19T11:39:02.100Z,100.00
2022-12-19T11:41:46.454Z,100.00
2022-12-19T11:44:30.715Z,100.00
2022-12-19T11:47:17.192Z,100.00
2022-12-19T11:50:03.016Z,100.00
2022-12-19T11:53:14.686Z,100.00
2022-12-19T11:56:25.029Z,100.00
2022-12-19T11:59:01.069Z,100.00
2022-12-19T12:01:46.043Z,100.00
2022-12-19T12:04:55.920Z,100.00
2022-12-19T12:07:38.037Z,100.00
2022-12-19T12:15:18.964Z,100.00
2022-12-19T12:19:55.589Z,100.00
2022-12-19T12:29:25.620Z,100.00
2022-12-19T12:31:04.067Z,100.00
2022-12-19T12:31:18.720Z,100.00
2022-12-19T12:31:38.743Z,100.00
2022-12-19T12:32:03.190Z,100.00
2022-12-19T12:36:00.031Z,100.00
2022-12-19T12:37:51.093Z,100.00
2022-12-19T12:38:51.466Z,100.00
2022-12-19T12:42:06.073Z,100.00
2022-12-19T12:44:45.103Z,100.00
2022-12-19T12:47:24.566Z,100.00
2022-12-19T12:49:56.342Z,100.00
2022-12-19T12:52:44.289Z,100.00
2022-12-19T12:55:43.298Z,100.00
2022-12-19T12:59:04.993Z,100.00
2022-12-19T13:01:39.063Z,100.00
2022-12-19T13:04:25.796Z,100.00
2022-12-19T13:06:52.777Z,100.00
2022-12-19T13:09:29.878Z,100.00
2022-12-19T13:12:57.599Z,100.00
2022-12-19T13:15:27.641Z,100.00
2022-12-19T13:17:54.730Z,100.00
2022-12-19T13:20:25.987Z,100.00
2022-12-19T13:23:21.616Z,100.00
2022-12-19T13:25:54.449Z,100.00
2022-12-19T13:28:21.804Z,100.00
2022-12-19T13:31:20.340Z,100.00
2022-12-19T13:34:17.068Z,100.00
2022-12-19T13:39:58.098Z,100.00
2022-12-19T13:40:09.002Z,100.00
2022-12-19T13:43:09.901Z,100.00
2022-12-19T13:45:41.918Z,100.00
2022-12-19T13:48:18.585Z,100.00
2022-12-19T13:50:49.385Z,100.00
2022-12-19T13:53:20.428Z,100.00
2022-12-19T13:55:47.660Z,100.00
2022-12-19T13:58:29.861Z,100.00
2022-12-19T14:01:02.572Z,100.00
2022-12-19T14:04:30.177Z,100.00
2022-12-19T14:07:02.227Z,100.00
2022-12-19T14:11:35.381Z,100.00
2022-12-19T14:13:57.212Z,100.00
2022-12-19T14:15:52.489Z,99.57
2022-12-19T14:18:43.158Z,100.00
2022-12-19T14:22:10.701Z,100.00
2022-12-19T14:24:19.835Z,100.00
2022-12-19T14:28:25.686Z,100.00
2022-12-19T14:30:32.569Z,99.49
2022-12-19T14:33:44.716Z,99.45
2022-12-19T14:36:12.420Z,98.79
2022-12-19T14:39:22.830Z,99.26
2022-12-19T14:42:01.458Z,99.50
2022-12-19T14:52:51.579Z,99.49
2022-12-19T14:54:07.515Z,99.45
2022-12-19T14:54:08.373Z,99.32
2022-12-19T14:54:38.005Z,99.15
2022-12-19T14:59:06.061Z,98.33
2022-12-19T15:01:36.729Z,98.81
2022-12-19T15:04:51.191Z,98.71
2022-12-19T15:07:11.758Z,98.95
2022-12-19T15:11:03.468Z,98.86
2022-12-19T15:14:50.663Z,98.87
2022-12-19T15:16:04.626Z,98.93
2022-12-19T15:18:42.301Z,98.78
2022-12-19T15:21:13.772Z,99.27
2022-12-19T15:23:43.426Z,98.69
2022-12-19T15:26:19.377Z,98.36
2022-12-19T15:28:52.524Z,97.95
2022-12-19T15:31:29.678Z,99.83
2022-12-19T15:34:32.939Z,99.47
2022-12-19T15:36:44.566Z,99.44
2022-12-19T15:39:11.772Z,98.03
2022-12-19T15:41:38.948Z,97.93
2022-12-19T15:44:19.093Z,98.00
2022-12-19T15:46:49.408Z,98.42
2022-12-19T15:49:22.146Z,98.87
2022-12-19T15:51:50.249Z,99.12
2022-12-19T15:57:05.067Z,99.51
2022-12-19T15:59:43.149Z,99.44
2022-12-19T16:02:22.865Z,99.32
2022-12-19T16:04:55.542Z,99.48
2022-12-19T16:07:27.060Z,98.76
2022-12-19T16:09:55.378Z,99.14
2022-12-19T16:12:34.428Z,99.27
2022-12-19T16:15:02.830Z,98.40
2022-12-19T16:17:33.039Z,99.59
2022-12-19T16:20:00.152Z,98.46
2022-12-19T16:22:29.371Z,99.39
2022-12-19T16:24:57.204Z,99.01
2022-12-19T16:27:26.263Z,99.44
2022-12-19T16:29:54.737Z,99.34
2022-12-19T16:32:26.577Z,99.13
2022-12-19T16:34:54.368Z,99.33
2022-12-19T16:37:23.597Z,99.13
2022-12-19T16:39:54.342Z,98.60
2022-12-19T16:42:21.462Z,98.96
2022-12-19T16:44:48.717Z,98.67
2022-12-19T16:47:18.223Z,97.99
2022-12-19T16:49:45.721Z,98.35
2022-12-19T16:52:12.799Z,99.08
2022-12-19T16:54:40.098Z,98.73
2022-12-19T16:57:18.697Z,98.54
2022-12-19T16:59:46.349Z,97.61
2022-12-19T17:02:41.076Z,98.32
2022-12-19T17:05:18.349Z,97.30
2022-12-19T17:07:45.777Z,97.70
2022-12-19T17:10:13.196Z,98.31
2022-12-19T17:12:40.927Z,97.28
2022-12-19T17:15:22.044Z,98.05
2022-12-19T17:17:49.967Z,96.78
2022-12-19T17:20:21.036Z,98.19
2022-12-19T17:22:49.714Z,97.24
2022-12-19T17:25:25.549Z,97.04
2022-12-19T17:27:54.626Z,97.42
2022-12-19T17:30:22.872Z,97.57
2022-12-19T17:32:53.317Z,96.42
2022-12-19T17:35:31.684Z,97.38
2022-12-19T17:37:58.772Z,95.93
2022-12-19T17:40:29.928Z,97.37
2022-12-19T17:42:57.793Z,97.66
2022-12-19T17:45:28.728Z,96.49
2022-12-19T17:48:02.729Z,98.24
2022-12-19T17:50:37.923Z,97.08
2022-12-19T17:53:06.359Z,97.76
2022-12-19T17:55:33.510Z,96.84
2022-12-19T17:58:00.706Z,96.01
2022-12-19T18:00:30.949Z,97.03
2022-12-19T18:03:05.805Z,96.02
2022-12-19T18:05:36.286Z,96.64
2022-12-19T18:08:06.639Z,96.85
2022-12-19T18:10:33.781Z,96.05
2022-12-19T18:13:00.831Z,96.64
2022-12-19T18:15:27.934Z,95.87
2022-12-19T18:17:55.237Z,97.22
2022-12-19T18:20:32.875Z,96.22
2022-12-19T18:23:01.785Z,95.29
2022-12-19T18:25:32.336Z,96.79
2022-12-19T18:27:59.588Z,96.17
2022-12-19T18:30:26.921Z,96.23
2022-12-19T18:33:01.393Z,95.81
2022-12-19T18:35:54.948Z,95.42
2022-12-19T18:38:24.555Z,97.03
2022-12-19T18:40:52.218Z,96.56
2022-12-19T18:43:20.131Z,96.20
2022-12-19T18:45:51.820Z,97.32
2022-12-19T18:48:23.629Z,96.84
2022-12-19T18:50:51.131Z,95.51
2022-12-19T18:53:21.720Z,96.74
2022-12-19T18:55:50.932Z,96.57
2022-12-19T18:58:20.416Z,97.52
2022-12-19T19:00:51.931Z,95.70
2022-12-19T19:03:30.142Z,96.62
2022-12-19T19:05:57.925Z,96.96
2022-12-19T19:08:29.538Z,97.30
2022-12-19T19:11:06.356Z,96.48
2022-12-19T19:13:33.651Z,95.66
2022-12-19T19:16:05.391Z,96.33
2022-12-19T19:18:38.461Z,96.99
2022-12-19T19:21:08.251Z,95.83
2022-12-19T19:23:45.939Z,96.03
2022-12-19T19:26:13.113Z,95.46
2022-12-19T19:28:40.238Z,95.28
2022-12-19T19:31:11.520Z,95.26
2022-12-19T19:33:45.156Z,96.25
2022-12-19T19:36:18.706Z,96.60
2022-12-19T19:38:50.673Z,95.69
2022-12-19T19:41:18.134Z,94.50
2022-12-19T19:43:45.210Z,95.40
2022-12-19T19:46:12.942Z,96.80
2022-12-19T19:48:42.445Z,95.32
2022-12-19T19:51:09.926Z,94.92
2022-12-19T19:53:37.060Z,95.85
2022-12-19T19:56:04.848Z,95.08
2022-12-19T19:58:32.194Z,95.80
2022-12-19T20:00:59.623Z,94.32
2022-12-19T20:03:28.053Z,95.49
2022-12-19T20:06:02.630Z,95.71
2022-12-19T20:08:38.569Z,94.85
2022-12-19T20:11:06.861Z,96.24
2022-12-19T20:13:34.431Z,94.59
2022-12-19T20:16:12.362Z,95.40
2022-12-19T20:18:41.228Z,94.90
2022-12-19T20:21:13.879Z,95.34
2022-12-19T20:23:43.265Z,95.91
2022-12-19T20:26:12.583Z,96.09
2022-12-19T20:28:47.772Z,94.94
2022-12-19T20:31:16.583Z,95.90
2022-12-19T20:33:43.843Z,95.81
2022-12-19T20:36:13.010Z,95.75
2022-12-19T20:38:40.569Z,95.92
2022-12-19T20:41:08.147Z,95.89
2022-12-19T20:43:35.674Z,95.50
2022-12-19T20:46:10.167Z,96.21
2022-12-19T20:48:38.153Z,96.32
2022-12-19T20:51:06.400Z,95.29
2022-12-19T20:53:35.668Z,95.36
2022-12-19T20:56:05.458Z,95.29
2022-12-19T20:58:35.585Z,95.88
2022-12-19T21:01:14.644Z,95.57
2022-12-19T21:03:43.209Z,96.34
2022-12-19T21:06:12.385Z,95.63
2022-12-19T21:08:40.021Z,95.50
2022-12-19T21:11:08.602Z,97.05
2022-12-19T21:13:37.942Z,96.74
2022-12-19T21:16:08.755Z,95.66
2022-12-19T21:18:38.544Z,96.35
2022-12-19T21:21:08.507Z,97.15
2022-12-19T21:23:35.741Z,97.04
2022-12-19T21:26:28.509Z,95.61
2022-12-19T21:28:57.945Z,95.44
2022-12-19T21:31:29.044Z,95.71
2022-12-19T21:34:02.165Z,96.91
2022-12-19T21:36:30.470Z,96.61
2022-12-19T21:39:01.753Z,96.10
2022-12-19T21:41:29.815Z,95.45
2022-12-19T21:43:57.993Z,96.42
2022-12-19T21:46:29.507Z,97.12
2022-12-19T21:48:57.755Z,96.08
2022-12-19T21:51:28.929Z,95.83
2022-12-19T21:54:02.667Z,95.84
2022-12-19T21:56:39.071Z,95.23
2022-12-19T21:59:12.405Z,96.37
2022-12-19T22:01:41.790Z,95.17
2022-12-19T22:04:23.663Z,96.07
2022-12-19T22:06:51.948Z,95.10
2022-12-19T22:09:25.265Z,95.28
2022-12-19T22:11:52.374Z,96.45
2022-12-19T22:14:19.550Z,96.43
2022-12-19T22:16:46.726Z,96.25
2022-12-19T22:19:16.875Z,94.26
2022-12-19T22:21:46.328Z,94.58
2022-12-19T22:24:16.164Z,95.61
2022-12-19T22:26:43.795Z,95.05
2022-12-19T22:29:14.908Z,94.28
2022-12-19T22:31:43.240Z,94.00
2022-12-19T22:34:14.758Z,95.57
2022-12-19T22:36:43.877Z,95.72
2022-12-19T22:39:14.900Z,95.53
2022-12-19T22:41:43.594Z,95.41
2022-12-19T22:44:19.452Z,95.54
2022-12-19T22:46:47.054Z,95.84
2022-12-19T22:49:14.346Z,95.59
2022-12-19T22:51:42.464Z,94.69
2022-12-19T22:54:11.206Z,95.14
2022-12-19T22:56:39.007Z,94.64
2022-12-19T22:59:08.660Z,96.46
2022-12-19T23:01:40.692Z,94.93
2022-12-19T23:04:10.908Z,94.74
2022-12-19T23:06:38.577Z,94.51
2022-12-19T23:09:08.149Z,95.45
2022-12-19T23:11:38.711Z,94.78
2022-12-19T23:14:09.618Z,94.42
2022-12-19T23:16:36.916Z,94.11
2022-12-19T23:19:05.610Z,96.33
2022-12-19T23:21:33.111Z,94.51
2022-12-19T23:24:00.425Z,94.79
2022-12-19T23:26:34.285Z,95.69
2022-12-19T23:29:05.002Z,94.99
2022-12-19T23:31:32.743Z,94.87
2022-12-19T23:34:00.737Z,95.94
2022-12-19T23:39:16.237Z,94.56
2022-12-19T23:41:43.422Z,94.71
2022-12-19T23:44:11.284Z,94.04
2022-12-19T23:46:38.755Z,94.45
2022-12-19T23:49:06.244Z,94.76
2022-12-19T23:51:33.417Z,95.46
2022-12-19T23:54:00.587Z,94.22
2022-12-19T23:56:30.811Z,94.42
2022-12-19T23:58:59.093Z,93.63
